createdAt,value
2018-09-26T00:00:48.768Z,4.30
2018-09-26T00:03:22.596Z,4.30
2018-09-26T00:05:51.108Z,4.20
2018-09-26T00:08:19.547Z,4.20
2018-09-26T00:10:48.448Z,4.20
2018-09-26T00:13:17.411Z,4.10
2018-09-26T00:15:45.874Z,4.10
2018-09-26T00:18:14.343Z,4.10
2018-09-26T00:20:42.810Z,4.00
2018-09-26T00:23:11.251Z,4.00
2018-09-26T00:25:39.715Z,3.90
2018-09-26T00:28:08.161Z,4.00
2018-09-26T00:30:36.598Z,4.00
2018-09-26T00:33:05.018Z,3.90
2018-09-26T00:35:33.527Z,3.80
2018-09-26T00:38:01.986Z,3.80
2018-09-26T00:40:30.434Z,3.80
2018-09-26T00:42:58.881Z,3.70
2018-09-26T00:45:27.331Z,3.70
2018-09-26T00:47:55.778Z,3.70
2018-09-26T00:50:24.234Z,3.90
2018-09-26T00:52:52.784Z,3.80
2018-09-26T00:55:21.255Z,3.90
2018-09-26T00:57:49.698Z,3.90
2018-09-26T01:00:18.170Z,4.00
2018-09-26T01:02:46.650Z,4.00
2018-09-26T01:05:15.112Z,4.20
2018-09-26T01:07:43.596Z,4.10
2018-09-26T01:10:12.274Z,3.80
2018-09-26T01:12:40.756Z,3.70
2018-09-26T01:15:09.227Z,3.70
2018-09-26T01:17:37.657Z,3.60
2018-09-26T01:20:06.186Z,3.70
2018-09-26T01:22:34.649Z,3.60
2018-09-26T01:25:03.114Z,3.50
2018-09-26T01:27:34.437Z,3.50
2018-09-26T01:30:04.973Z,3.60
2018-09-26T01:32:33.854Z,3.50
2018-09-26T01:35:02.756Z,3.40
2018-09-26T01:37:31.198Z,3.40
2018-09-26T01:40:00.134Z,3.30
2018-09-26T01:42:28.707Z,3.30
2018-09-26T01:44:57.419Z,3.30
2018-09-26T01:47:25.898Z,3.30
2018-09-26T01:49:54.357Z,3.20
2018-09-26T01:52:22.843Z,3.20
2018-09-26T01:54:51.256Z,3.10
2018-09-26T01:57:19.707Z,3.00
2018-09-26T01:59:48.179Z,3.00
2018-09-26T02:02:16.628Z,3.00
2018-09-26T02:04:45.064Z,3.00
2018-09-26T02:07:13.517Z,2.90
2018-09-26T02:09:41.940Z,2.90
2018-09-26T02:12:10.599Z,2.90
2018-09-26T02:14:39.042Z,2.90
2018-09-26T02:17:07.494Z,3.10
2018-09-26T02:19:35.956Z,3.10
2018-09-26T02:22:04.409Z,3.00
2018-09-26T02:24:32.841Z,3.00
2018-09-26T02:27:01.283Z,3.00
2018-09-26T02:29:29.766Z,3.00
2018-09-26T02:31:58.210Z,3.00
2018-09-26T02:34:26.651Z,2.90
2018-09-26T02:36:55.089Z,3.00
2018-09-26T02:39:23.563Z,3.00
2018-09-26T02:41:51.987Z,3.00
2018-09-26T02:44:20.428Z,3.00
2018-09-26T02:46:48.847Z,2.90
2018-09-26T02:49:17.265Z,3.00
2018-09-26T02:51:45.742Z,2.90
2018-09-26T02:54:14.177Z,2.80
2018-09-26T02:56:42.619Z,2.80
2018-09-26T02:59:11.114Z,2.70
2018-09-26T03:01:39.668Z,2.70
2018-09-26T03:04:08.103Z,2.70
2018-09-26T03:06:36.561Z,2.80
2018-09-26T03:09:06.996Z,2.80
2018-09-26T03:11:35.459Z,2.70
2018-09-26T03:14:03.917Z,2.70
2018-09-26T03:16:32.472Z,2.70
2018-09-26T03:19:01.141Z,2.60
2018-09-26T03:21:29.624Z,2.50
2018-09-26T03:23:58.049Z,2.60
2018-09-26T03:26:26.692Z,2.70
2018-09-26T03:28:55.271Z,2.60
2018-09-26T03:31:23.700Z,2.60
2018-09-26T03:33:52.232Z,2.50
2018-09-26T03:36:20.593Z,2.40
2018-09-26T03:38:49.098Z,2.40
2018-09-26T03:41:17.525Z,2.50
2018-09-26T03:43:46.026Z,2.50
2018-09-26T03:46:14.472Z,2.50
2018-09-26T03:48:43.041Z,2.40
2018-09-26T03:51:11.508Z,2.50
2018-09-26T03:53:39.940Z,2.30
2018-09-26T03:56:08.399Z,2.30
2018-09-26T03:58:37.078Z,2.30
2018-09-26T04:01:05.562Z,2.20
2018-09-26T04:03:34.088Z,2.20
2018-09-26T04:06:02.550Z,2.30
2018-09-26T04:08:31.121Z,2.30
2018-09-26T04:10:59.575Z,2.20
2018-09-26T04:13:28.014Z,2.30
2018-09-26T04:15:56.458Z,2.30
2018-09-26T04:18:25.998Z,2.20
2018-09-26T04:20:55.123Z,2.10
2018-09-26T04:23:23.619Z,2.20
2018-09-26T04:25:52.182Z,2.10
2018-09-26T04:28:20.619Z,2.00
2018-09-26T04:30:49.085Z,2.00
2018-09-26T04:33:17.754Z,2.00
2018-09-26T04:35:46.018Z,1.90
2018-09-26T04:38:14.446Z,2.00
2018-09-26T04:40:42.893Z,2.00
2018-09-26T04:43:11.354Z,2.00
2018-09-26T04:45:39.785Z,2.00
2018-09-26T04:48:08.218Z,2.00
2018-09-26T04:50:36.696Z,2.00
2018-09-26T04:53:05.446Z,2.00
2018-09-26T04:55:33.906Z,2.10
2018-09-26T04:58:02.442Z,2.00
2018-09-26T05:00:30.898Z,2.00
2018-09-26T05:02:59.354Z,1.90
2018-09-26T05:05:27.824Z,2.00
2018-09-26T05:07:56.253Z,1.90
2018-09-26T05:10:24.780Z,1.90
2018-09-26T05:12:53.212Z,1.90
2018-09-26T05:15:21.701Z,1.90
2018-09-26T05:17:50.158Z,1.80
2018-09-26T05:20:18.686Z,1.80
2018-09-26T05:22:47.151Z,1.80
2018-09-26T05:25:15.598Z,1.80
2018-09-26T05:27:44.058Z,1.90
2018-09-26T05:30:12.551Z,1.90
2018-09-26T05:32:40.974Z,2.00
2018-09-26T05:35:09.579Z,2.00
2018-09-26T05:37:38.000Z,2.10
2018-09-26T05:40:06.474Z,2.10
2018-09-26T05:42:34.952Z,2.20
2018-09-26T05:45:03.448Z,2.20
2018-09-26T05:47:31.935Z,2.20
2018-09-26T05:50:00.406Z,2.20
2018-09-26T05:52:28.870Z,2.20
2018-09-26T05:54:57.341Z,2.20
2018-09-26T05:57:25.795Z,2.40
2018-09-26T05:59:54.381Z,2.60
2018-09-26T06:02:22.894Z,2.70
2018-09-26T06:04:51.390Z,2.70
2018-09-26T06:07:19.887Z,2.90
2018-09-26T06:09:48.349Z,2.90
2018-09-26T06:12:16.782Z,3.00
2018-09-26T06:14:45.258Z,3.10
2018-09-26T06:17:13.764Z,3.20
2018-09-26T06:19:42.285Z,3.50
2018-09-26T06:22:10.809Z,3.80
2018-09-26T06:24:39.251Z,4.10
2018-09-26T06:27:08.129Z,4.60
2018-09-26T06:29:36.854Z,5.00
2018-09-26T06:32:05.296Z,5.50
2018-09-26T06:34:33.748Z,6.10
2018-09-26T06:37:02.207Z,6.50
2018-09-26T06:39:30.894Z,7.00
2018-09-26T06:41:59.354Z,7.20
2018-09-26T06:44:27.796Z,7.00
2018-09-26T06:46:56.215Z,6.90
2018-09-26T06:49:24.663Z,6.90
2018-09-26T06:51:53.167Z,7.00
2018-09-26T06:54:21.643Z,6.70
2018-09-26T06:56:50.105Z,6.70
2018-09-26T06:59:18.566Z,6.80
2018-09-26T07:01:47.022Z,6.80
2018-09-26T07:04:15.542Z,6.70
2018-09-26T07:06:44.082Z,6.70
2018-09-26T07:09:12.591Z,6.70
2018-09-26T07:11:41.042Z,6.70
2018-09-26T07:14:09.506Z,6.90
2018-09-26T07:16:38.018Z,6.90
2018-09-26T07:19:06.524Z,7.20
2018-09-26T07:21:35.841Z,7.20
2018-09-26T07:24:04.374Z,7.50
2018-09-26T07:26:32.846Z,7.80
2018-09-26T07:29:01.326Z,7.90
2018-09-26T07:31:29.887Z,8.10
2018-09-26T07:33:58.327Z,7.90
2018-09-26T07:36:26.796Z,8.00
2018-09-26T07:38:55.292Z,8.30
2018-09-26T07:41:23.750Z,8.70
2018-09-26T07:43:52.211Z,8.90
2018-09-26T07:46:20.661Z,8.90
2018-09-26T07:48:49.301Z,8.90
2018-09-26T07:51:17.834Z,9.00
2018-09-26T07:53:46.329Z,9.60
2018-09-26T07:56:14.821Z,10.70
2018-09-26T07:58:43.287Z,12.00
2018-09-26T08:01:11.783Z,13.40
2018-09-26T08:03:40.279Z,14.10
2018-09-26T08:06:09.014Z,16.10
2018-09-26T08:08:37.670Z,16.20
2018-09-26T08:11:06.154Z,16.60
2018-09-26T08:13:34.633Z,17.60
2018-09-26T08:16:03.063Z,19.30
2018-09-26T08:18:31.603Z,18.60
2018-09-26T08:21:00.048Z,18.80
2018-09-26T08:23:28.527Z,20.30
2018-09-26T08:25:56.983Z,20.40
2018-09-26T08:28:25.463Z,20.20
2018-09-26T08:30:53.891Z,20.90
2018-09-26T08:33:22.362Z,19.50
2018-09-26T08:35:50.839Z,20.70
2018-09-26T08:38:19.326Z,23.20
2018-09-26T08:40:47.785Z,22.30
2018-09-26T08:43:16.254Z,20.80
2018-09-26T08:45:44.728Z,20.20
2018-09-26T08:48:13.196Z,18.90
2018-09-26T08:50:41.660Z,18.50
2018-09-26T08:53:10.311Z,17.50
2018-09-26T08:55:38.802Z,16.80
2018-09-26T08:58:07.265Z,17.00
2018-09-26T09:00:36.691Z,16.80
2018-09-26T09:03:06.606Z,17.10
2018-09-26T09:05:35.202Z,17.00
2018-09-26T09:08:03.661Z,16.70
2018-09-26T09:10:33.138Z,16.50
2018-09-26T09:13:01.646Z,16.20
2018-09-26T09:15:30.117Z,16.60
2018-09-26T09:17:58.598Z,16.70
2018-09-26T09:20:27.085Z,16.90
2018-09-26T09:22:55.572Z,17.30
2018-09-26T09:25:24.015Z,19.00
2018-09-26T09:27:52.478Z,19.90
2018-09-26T09:30:21.010Z,20.40
2018-09-26T09:32:49.875Z,21.80
2018-09-26T09:35:18.623Z,22.20
2018-09-26T09:37:47.092Z,23.20
2018-09-26T09:40:15.598Z,24.20
2018-09-26T09:42:44.990Z,24.00
2018-09-26T09:45:13.497Z,24.90
2018-09-26T09:47:41.960Z,26.60
2018-09-26T09:50:10.470Z,24.70
2018-09-26T09:52:38.939Z,26.90
2018-09-26T09:55:07.461Z,26.00
2018-09-26T09:57:35.897Z,27.50
2018-09-26T10:00:04.461Z,27.10
2018-09-26T10:02:33.003Z,25.90
2018-09-26T10:05:01.463Z,25.10
2018-09-26T10:07:29.907Z,25.00
2018-09-26T10:09:58.392Z,25.10
2018-09-26T10:12:26.851Z,24.70
2018-09-26T10:14:55.321Z,24.70
2018-09-26T10:17:23.736Z,24.80
2018-09-26T10:19:52.160Z,25.40
2018-09-26T10:22:20.573Z,25.30
2018-09-26T10:24:48.974Z,28.20
2018-09-26T10:27:17.411Z,29.30
2018-09-26T10:29:45.862Z,28.80
2018-09-26T10:32:14.301Z,28.10
2018-09-26T10:34:42.860Z,27.50
2018-09-26T10:37:11.279Z,29.60
2018-09-26T10:39:39.706Z,28.70
2018-09-26T10:42:08.148Z,26.20
2018-09-26T10:44:36.602Z,26.00
2018-09-26T10:47:05.038Z,25.40
2018-09-26T10:49:33.457Z,25.00
2018-09-26T10:52:01.910Z,24.30
2018-09-26T10:54:30.319Z,24.00
2018-09-26T10:56:58.736Z,22.50
2018-09-26T10:59:27.172Z,22.20
2018-09-26T11:01:55.589Z,21.90
2018-09-26T11:04:24.107Z,22.50
2018-09-26T11:06:52.482Z,23.10
2018-09-26T11:09:20.947Z,23.10
2018-09-26T11:11:49.367Z,23.20
2018-09-26T11:14:17.891Z,22.20
2018-09-26T11:16:46.290Z,21.40
2018-09-26T11:19:14.728Z,21.20
2018-09-26T11:21:43.152Z,21.10
2018-09-26T11:24:11.541Z,20.80
2018-09-26T11:26:40.177Z,20.90
2018-09-26T11:29:08.522Z,21.10
2018-09-26T11:31:37.307Z,20.50
2018-09-26T11:34:05.768Z,20.30
2018-09-26T11:36:34.235Z,20.20
2018-09-26T11:39:02.716Z,20.50
2018-09-26T11:41:31.201Z,20.30
2018-09-26T11:43:59.618Z,19.90
2018-09-26T11:46:28.042Z,20.20
2018-09-26T11:48:56.444Z,20.30
2018-09-26T11:51:24.876Z,20.20
2018-09-26T11:53:53.306Z,20.20
2018-09-26T11:56:21.789Z,20.70
2018-09-26T11:58:50.171Z,20.50
2018-09-26T12:01:18.599Z,20.00
2018-09-26T12:03:47.022Z,20.10
2018-09-26T12:06:15.512Z,20.60
2018-09-26T12:08:43.939Z,20.40
2018-09-26T12:11:12.354Z,20.20
2018-09-26T12:13:40.917Z,19.90
2018-09-26T12:16:09.367Z,19.70
2018-09-26T12:18:37.823Z,19.90
2018-09-26T12:21:06.410Z,20.10
2018-09-26T12:23:34.924Z,19.80
2018-09-26T12:26:03.361Z,19.60
2018-09-26T12:28:31.785Z,19.80
2018-09-26T12:31:00.203Z,20.40
2018-09-26T12:33:28.663Z,20.00
2018-09-26T12:35:57.102Z,20.40
2018-09-26T12:38:25.524Z,20.20
2018-09-26T12:40:53.949Z,20.30
2018-09-26T12:43:22.383Z,20.30
2018-09-26T12:45:51.478Z,20.80
2018-09-26T12:48:19.926Z,21.30
2018-09-26T12:50:48.331Z,21.60
2018-09-26T12:53:16.879Z,22.10
2018-09-26T12:55:45.304Z,22.10
2018-09-26T12:58:13.746Z,22.10
2018-09-26T13:00:42.247Z,21.80
2018-09-26T13:03:10.652Z,21.30
2018-09-26T13:05:39.107Z,21.60
2018-09-26T13:08:07.846Z,21.30
2018-09-26T13:10:44.535Z,21.30
2018-09-26T13:13:13.243Z,21.30
2018-09-26T13:15:41.645Z,21.60
2018-09-26T13:18:10.135Z,21.30
2018-09-26T13:20:38.483Z,21.20
2018-09-26T13:23:06.924Z,21.00
2018-09-26T13:25:35.488Z,21.20
2018-09-26T13:28:03.840Z,21.20
2018-09-26T13:30:32.251Z,20.90
2018-09-26T13:33:00.687Z,20.90
2018-09-26T13:35:29.108Z,21.60
2018-09-26T13:37:57.513Z,21.90
2018-09-26T13:40:26.043Z,21.80
2018-09-26T13:42:54.397Z,22.10
2018-09-26T13:45:22.829Z,22.00
2018-09-26T13:47:51.245Z,22.30
2018-09-26T13:50:19.652Z,22.40
2018-09-26T13:52:48.116Z,22.20
2018-09-26T13:55:16.545Z,22.40
2018-09-26T13:57:44.998Z,22.00
2018-09-26T14:00:16.401Z,21.90
2018-09-26T14:02:45.673Z,22.30
2018-09-26T14:05:14.138Z,22.60
2018-09-26T14:07:42.586Z,22.80
2018-09-26T14:10:11.034Z,23.00
2018-09-26T14:12:39.475Z,23.10
2018-09-26T14:15:08.128Z,22.40
2018-09-26T14:17:36.550Z,22.30
2018-09-26T14:20:05.058Z,22.20
2018-09-26T14:22:34.984Z,22.20
2018-09-26T14:25:03.439Z,22.50
2018-09-26T14:27:31.844Z,22.40
2018-09-26T14:30:00.512Z,22.30
2018-09-26T14:32:28.886Z,22.50
2018-09-26T14:34:57.299Z,22.40
2018-09-26T14:37:25.703Z,22.30
2018-09-26T14:39:54.160Z,22.30
2018-09-26T14:42:22.598Z,22.40
2018-09-26T14:44:51.075Z,22.60
2018-09-26T14:47:19.599Z,22.80
2018-09-26T14:49:48.013Z,22.70
2018-09-26T14:52:16.443Z,22.40
2018-09-26T14:54:44.874Z,22.10
2018-09-26T14:57:13.384Z,22.20
2018-09-26T14:59:41.745Z,22.20
2018-09-26T15:02:10.263Z,22.00
2018-09-26T15:04:38.683Z,22.00
2018-09-26T15:07:07.126Z,21.60
2018-09-26T15:09:35.558Z,21.70
2018-09-26T15:12:04.092Z,21.40
2018-09-26T15:14:32.448Z,21.30
2018-09-26T15:17:00.899Z,21.10
2018-09-26T15:19:29.497Z,21.10
2018-09-26T15:21:57.950Z,20.90
2018-09-26T15:24:26.555Z,20.90
2018-09-26T15:26:54.930Z,20.90
2018-09-26T15:29:23.348Z,20.60
2018-09-26T15:31:51.775Z,20.70
2018-09-26T15:34:20.209Z,20.90
2018-09-26T15:36:48.833Z,20.80
2018-09-26T15:39:17.246Z,21.00
2018-09-26T15:41:45.698Z,20.70
2018-09-26T15:44:14.244Z,20.70
2018-09-26T15:46:42.722Z,20.50
2018-09-26T15:49:11.214Z,20.10
2018-09-26T15:51:39.664Z,19.80
2018-09-26T15:54:08.701Z,19.60
2018-09-26T15:56:37.178Z,19.30
2018-09-26T15:59:05.591Z,19.20
2018-09-26T16:01:34.039Z,19.20
2018-09-26T16:04:02.487Z,19.00
2018-09-26T16:06:31.015Z,18.80
2018-09-26T16:08:59.664Z,18.80
2018-09-26T16:11:28.238Z,18.70
2018-09-26T16:13:56.744Z,18.50
2018-09-26T16:16:25.221Z,18.40
2018-09-26T16:18:53.618Z,18.30
2018-09-26T16:21:22.161Z,18.20
2018-09-26T16:23:50.569Z,18.00
2018-09-26T16:26:19.101Z,18.00
2018-09-26T16:28:47.472Z,17.80
2018-09-26T16:31:16.087Z,17.90
2018-09-26T16:33:44.507Z,17.70
2018-09-26T16:36:13.016Z,17.60
2018-09-26T16:38:41.524Z,17.40
2018-09-26T16:41:09.958Z,17.30
2018-09-26T16:43:38.409Z,17.10
2018-09-26T16:46:06.859Z,16.90
2018-09-26T16:48:35.299Z,16.70
2018-09-26T16:51:03.729Z,16.60
2018-09-26T16:53:32.205Z,16.40
2018-09-26T16:56:01.059Z,16.30
2018-09-26T16:58:29.503Z,16.10
2018-09-26T17:00:58.678Z,16.00
2018-09-26T17:03:27.139Z,15.90
2018-09-26T17:05:55.581Z,15.80
2018-09-26T17:08:24.146Z,15.70
2018-09-26T17:10:52.542Z,15.50
2018-09-26T17:13:21.071Z,15.30
2018-09-26T17:15:49.590Z,15.10
2018-09-26T17:18:18.064Z,15.00
2018-09-26T17:20:46.508Z,14.90
2018-09-26T17:23:14.916Z,14.70
2018-09-26T17:25:43.358Z,14.50
2018-09-26T17:28:11.872Z,14.40
2018-09-26T17:30:40.224Z,14.20
2018-09-26T17:33:08.643Z,14.10
2018-09-26T17:35:37.098Z,13.90
2018-09-26T17:38:05.575Z,13.80
2018-09-26T17:40:34.021Z,13.70
2018-09-26T17:43:02.495Z,13.60
2018-09-26T17:45:30.959Z,13.50
2018-09-26T17:47:59.362Z,13.40
2018-09-26T17:50:27.825Z,13.30
2018-09-26T17:52:56.292Z,13.20
2018-09-26T17:55:24.709Z,13.10
2018-09-26T17:57:53.155Z,13.00
2018-09-26T18:00:21.625Z,13.00
2018-09-26T18:02:50.330Z,12.90
2018-09-26T18:05:18.781Z,12.90
2018-09-26T18:07:47.211Z,12.80
2018-09-26T18:10:15.680Z,12.70
2018-09-26T18:12:44.235Z,12.60
2018-09-26T18:15:12.718Z,12.50
2018-09-26T18:17:41.171Z,12.40
2018-09-26T18:20:09.667Z,12.40
2018-09-26T18:22:38.131Z,12.30
2018-09-26T18:25:06.620Z,12.20
2018-09-26T18:27:35.344Z,12.20
2018-09-26T18:30:04.136Z,12.10
2018-09-26T18:32:32.620Z,12.00
2018-09-26T18:35:01.055Z,11.90
2018-09-26T18:37:29.526Z,11.90
2018-09-26T18:39:58.004Z,11.70
2018-09-26T18:42:26.464Z,11.60
2018-09-26T18:44:55.015Z,11.60
2018-09-26T18:47:23.710Z,11.60
2018-09-26T18:49:52.131Z,11.40
2018-09-26T18:52:20.609Z,11.40
2018-09-26T18:54:49.514Z,11.40
2018-09-26T18:57:17.953Z,11.30
2018-09-26T18:59:46.406Z,11.40
2018-09-26T19:02:14.886Z,11.20
2018-09-26T19:04:43.448Z,11.20
2018-09-26T19:07:11.806Z,11.10
2018-09-26T19:09:40.269Z,11.10
2018-09-26T19:12:08.827Z,11.00
2018-09-26T19:14:37.211Z,10.90
2018-09-26T19:17:05.800Z,10.80
2018-09-26T19:19:34.222Z,10.80
2018-09-26T19:22:02.695Z,10.70
2018-09-26T19:24:31.240Z,10.60
2018-09-26T19:26:59.727Z,10.60
2018-09-26T19:29:28.146Z,10.50
2018-09-26T19:31:56.631Z,10.50
2018-09-26T19:34:25.094Z,10.50
2018-09-26T19:36:53.520Z,10.50
2018-09-26T19:39:22.072Z,10.40
2018-09-26T19:41:50.510Z,10.30
2018-09-26T19:44:19.908Z,10.30
2018-09-26T19:46:48.345Z,10.30
2018-09-26T19:49:16.832Z,10.20
2018-09-26T19:51:45.319Z,10.00
2018-09-26T19:54:13.844Z,10.00
2018-09-26T19:56:42.374Z,10.00
2018-09-26T19:59:10.832Z,9.90
2018-09-26T20:01:39.276Z,9.90
2018-09-26T20:04:07.771Z,9.80
2018-09-26T20:06:36.246Z,9.70
2018-09-26T20:09:08.015Z,9.60
2018-09-26T20:11:36.527Z,9.60
2018-09-26T20:14:04.965Z,9.70
2018-09-26T20:16:33.457Z,9.60
2018-09-26T20:19:01.882Z,9.60
2018-09-26T20:21:30.384Z,9.60
2018-09-26T20:23:58.878Z,9.50
2018-09-26T20:26:27.396Z,9.50
2018-09-26T20:28:55.833Z,9.40
2018-09-26T20:31:24.257Z,9.40
2018-09-26T20:33:52.759Z,9.30
2018-09-26T20:36:21.237Z,9.30
2018-09-26T20:38:49.805Z,9.30
2018-09-26T20:41:18.245Z,9.20
2018-09-26T20:43:46.738Z,9.30
2018-09-26T20:46:15.177Z,9.20
2018-09-26T20:48:43.603Z,9.20
2018-09-26T20:51:12.059Z,9.10
2018-09-26T20:53:40.496Z,9.00
2018-09-26T20:56:08.975Z,9.00
2018-09-26T20:58:37.405Z,8.90
2018-09-26T21:01:05.827Z,8.90
2018-09-26T21:03:34.256Z,8.90
2018-09-26T21:06:02.739Z,8.90
2018-09-26T21:08:31.166Z,8.70
2018-09-26T21:10:59.596Z,8.70
2018-09-26T21:13:28.073Z,8.70
2018-09-26T21:15:56.507Z,8.60
2018-09-26T21:18:25.039Z,8.60
2018-09-26T21:20:53.490Z,8.60
2018-09-26T21:23:21.930Z,8.60
2018-09-26T21:25:50.341Z,8.40
2018-09-26T21:28:18.768Z,8.50
2018-09-26T21:30:47.189Z,8.50
2018-09-26T21:33:15.632Z,8.50
2018-09-26T21:35:44.190Z,8.40
2018-09-26T21:38:12.657Z,8.40
2018-09-26T21:40:41.153Z,8.30
2018-09-26T21:43:09.599Z,8.30
2018-09-26T21:45:38.019Z,8.20
2018-09-26T21:48:06.498Z,8.20
2018-09-26T21:50:34.918Z,8.10
2018-09-26T21:53:03.415Z,8.20
2018-09-26T21:55:31.899Z,8.20
2018-09-26T21:58:00.343Z,8.20
2018-09-26T22:00:28.827Z,8.20
2018-09-26T22:02:57.433Z,8.10
2018-09-26T22:05:26.114Z,8.00
2018-09-26T22:07:54.649Z,7.90
2018-09-26T22:10:23.251Z,8.00
2018-09-26T22:12:51.794Z,7.90
2018-09-26T22:15:23.780Z,7.90
2018-09-26T22:17:53.558Z,7.90
2018-09-26T22:20:22.175Z,7.90
2018-09-26T22:22:50.993Z,7.90
2018-09-26T22:25:19.650Z,7.80
2018-09-26T22:27:48.261Z,7.80
2018-09-26T22:30:16.819Z,7.70
2018-09-26T22:32:45.371Z,7.70
2018-09-26T22:35:13.956Z,7.60
2018-09-26T22:37:42.516Z,7.60
2018-09-26T22:40:11.082Z,7.60
2018-09-26T22:42:39.663Z,7.50
2018-09-26T22:45:08.223Z,7.50
2018-09-26T22:47:36.818Z,7.50
2018-09-26T22:50:06.514Z,7.50
2018-09-26T22:52:35.088Z,7.50
2018-09-26T22:55:03.634Z,7.40
2018-09-26T22:57:32.200Z,7.40
2018-09-26T23:00:00.741Z,7.40
2018-09-26T23:02:29.300Z,7.30
2018-09-26T23:04:57.857Z,7.30
2018-09-26T23:07:26.414Z,7.20
2018-09-26T23:09:55.025Z,7.20
2018-09-26T23:12:23.610Z,7.30
2018-09-26T23:14:52.198Z,7.30
2018-09-26T23:17:20.794Z,7.20
2018-09-26T23:19:49.335Z,7.20
2018-09-26T23:22:17.901Z,7.20
2018-09-26T23:24:46.442Z,7.10
2018-09-26T23:27:15.031Z,7.10
2018-09-26T23:29:43.594Z,7.10
2018-09-26T23:32:12.152Z,7.10
2018-09-26T23:34:40.755Z,7.00
2018-09-26T23:37:09.299Z,7.00
2018-09-26T23:39:37.839Z,7.00
2018-09-26T23:42:06.693Z,7.00
2018-09-26T23:44:35.267Z,7.00
2018-09-26T23:47:03.862Z,7.00
2018-09-26T23:49:32.418Z,7.00
2018-09-26T23:52:00.976Z,6.90
2018-09-26T23:54:29.605Z,6.90
2018-09-26T23:56:58.183Z,6.90
2018-09-26T23:59:26.786Z,6.90
